Time;durP1;ratioP1;P1;durP2;ratioP2;P2;SDS_P1;SDS_P2;PMS_P1;PMS_P2;Temp;Humidity;BMP_temperature;BMP_pressure;BME280_temperature;BME280_humidity;BME280_pressure;Samples;Min_cycle;Max_cycle;Signal;HPM_P1;HPM_P2
2023/09/15 00:00:12;;;;;;;13.43;7.05;;;26.40;54.40;;;;;;352358;28;1018;-57
2023/09/15 00:00:25;;;;;;;10.98;5.72;;;26.40;54.40;;;;;;352448;28;1031;-56
2023/09/15 00:00:36;;;;;;;10.55;5.68;;;26.40;54.40;;;;;;352460;28;1134;-56
2023/09/15 00:00:47;;;;;;;12.57;6.22;;;26.40;54.40;;;;;;352466;28;947;-57
2023/09/15 00:00:58;;;;;;;13.38;6.60;;;26.40;54.40;;;;;;352392;28;1143;-57
2023/09/15 00:01:09;;;;;;;13.00;6.63;;;26.40;54.50;;;;;;352446;28;872;-58
2023/09/15 00:01:21;;;;;;;11.43;5.82;;;26.40;54.50;;;;;;352494;28;982;-57
2023/09/15 00:01:34;;;;;;;8.75;4.88;;;26.40;54.50;;;;;;352499;28;975;-57
2023/09/15 00:01:45;;;;;;;8.02;4.25;;;26.40;54.60;;;;;;352443;28;935;-57
2023/09/15 00:01:55;;;;;;;8.27;4.50;;;26.40;54.60;;;;;;352418;28;1449;-56
2023/09/15 00:02:07;;;;;;;8.07;4.20;;;26.40;54.60;;;;;;352463;28;1263;-57
2023/09/15 00:02:18;;;;;;;8.93;4.40;;;26.40;54.60;;;;;;352514;28;1062;-56
2023/09/15 00:02:30;;;;;;;8.90;4.30;;;26.40;54.60;;;;;;352541;28;876;-58
2023/09/15 00:02:41;;;;;;;10.15;4.38;;;26.40;54.60;;;;;;352395;28;1847;-57
2023/09/15 00:02:57;;;;;;;10.43;4.25;;;26.40;54.60;;;;;;352488;28;1114;-56
2023/09/15 00:03:08;;;;;;;9.95;4.20;;;26.40;54.70;;;;;;352467;28;1015;-57
2023/09/15 00:03:19;;;;;;;9.48;4.40;;;26.40;54.80;;;;;;352528;28;1058;-57
2023/09/15 00:03:29;;;;;;;9.68;4.00;;;26.40;54.80;;;;;;352450;28;1019;-56
2023/09/15 00:03:40;;;;;;;8.63;4.20;;;26.40;54.80;;;;;;352446;28;1646;-56
2023/09/15 00:03:51;;;;;;;8.73;3.87;;;26.40;54.90;;;;;;352451;28;1214;-56
2023/09/15 00:04:05;;;;;;;9.82;4.25;;;26.30;54.90;;;;;;352475;28;1078;-58
2023/09/15 00:04:17;;;;;;;11.40;4.60;;;26.40;54.90;;;;;;352488;28;1050;-58
2023/09/15 00:04:28;;;;;;;10.43;4.57;;;26.40;55.00;;;;;;352425;28;1011;-57
2023/09/15 00:04:39;;;;;;;12.65;4.78;;;26.30;55.10;;;;;;352502;28;828;-57
2023/09/15 00:04:49;;;;;;;11.98;4.55;;;26.30;55.10;;;;;;352536;28;991;-57
2023/09/15 00:05:00;;;;;;;11.33;4.20;;;26.30;55.10;;;;;;352532;28;978;-57
2023/09/15 00:05:12;;;;;;;10.13;3.90;;;26.30;55.10;;;;;;352521;27;1321;-57
2023/09/15 00:05:26;;;;;;;10.95;4.53;;;26.30;55.10;;;;;;352376;28;1200;-57
2023/09/15 00:05:37;;;;;;;9.32;5.32;;;26.30;55.10;;;;;;352464;28;960;-57
2023/09/15 00:05:48;;;;;;;10.68;6.85;;;26.30;54.90;;;;;;352375;28;1118;-58
2023/09/15 00:05:59;;;;;;;13.10;9.10;;;26.30;54.90;;;;;;352477;28;1083;-57
2023/09/15 00:06:09;;;;;;;13.98;10.43;;;26.30;55.00;;;;;;352456;28;1025;-58
2023/09/15 00:06:20;;;;;;;12.73;9.43;;;26.30;55.00;;;;;;352485;28;1086;-57
2023/09/15 00:06:37;;;;;;;10.63;7.28;;;26.30;55.10;;;;;;352413;28;898;-57
2023/09/15 00:06:48;;;;;;;9.48;5.05;;;26.30;55.10;;;;;;352465;28;900;-58
2023/09/15 00:06:59;;;;;;;8.50;4.40;;;26.30;55.10;;;;;;352385;28;1369;-57
2023/09/15 00:07:10;;;;;;;7.80;4.20;;;26.30;55.10;;;;;;352498;28;940;-57
2023/09/15 00:07:20;;;;;;;9.07;4.47;;;26.30;55.10;;;;;;352421;27;1844;-58
2023/09/15 00:07:31;;;;;;;10.60;4.35;;;26.30;55.10;;;;;;352494;28;1161;-58
2023/09/15 00:07:42;;;;;;;9.93;4.05;;;26.30;55.10;;;;;;352490;28;1043;-58
2023/09/15 00:07:53;;;;;;;8.32;3.80;;;26.30;55.10;;;;;;352520;28;852;-57
2023/09/15 00:08:05;;;;;;;6.97;3.93;;;26.30;55.20;;;;;;352410;28;1107;-57
2023/09/15 00:08:16;;;;;;;7.30;4.10;;;26.30;55.10;;;;;;352537;28;922;-57
2023/09/15 00:08:28;;;;;;;8.52;4.57;;;26.30;55.10;;;;;;352387;28;1452;-57
2023/09/15 00:08:38;;;;;;;8.43;4.60;;;26.30;55.10;;;;;;352458;28;1194;-58
2023/09/15 00:08:50;;;;;;;9.45;5.40;;;26.30;55.10;;;;;;352445;28;1235;-57
2023/09/15 00:09:06;;;;;;;11.15;5.72;;;26.30;55.20;;;;;;352407;28;1130;-56
2023/09/15 00:09:18;;;;;;;12.93;7.15;;;26.30;55.20;;;;;;352460;28;1945;-57
2023/09/15 00:09:31;;;;;;;11.40;6.30;;;26.30;55.20;;;;;;352510;28;991;-57
2023/09/15 00:09:41;;;;;;;11.15;5.93;;;26.30;55.20;;;;;;352437;28;1047;-58
2023/09/15 00:09:52;;;;;;;8.88;4.18;;;26.30;55.20;;;;;;352536;28;967;-56
2023/09/15 00:10:05;;;;;;;8.18;4.10;;;26.30;55.30;;;;;;352417;28;1018;-57
2023/09/15 00:10:19;;;;;;;10.55;4.50;;;26.30;55.30;;;;;;352515;28;999;-56
2023/09/15 00:10:29;;;;;;;11.07;4.85;;;26.30;55.30;;;;;;352475;28;979;-56
2023/09/15 00:10:41;;;;;;;11.68;4.93;;;26.30;55.30;;;;;;352408;28;972;-57
2023/09/15 00:10:51;;;;;;;10.20;4.70;;;26.30;55.30;;;;;;352468;28;1863;-57
2023/09/15 00:11:02;;;;;;;9.23;4.38;;;26.30;55.30;;;;;;352523;27;805;-57
2023/09/15 00:11:17;;;;;;;9.25;4.80;;;26.30;55.40;;;;;;352485;28;991;-57
2023/09/15 00:11:39;;;;;;;8.70;4.85;;;26.30;55.40;;;;;;352384;28;1836;-56
2023/09/15 00:11:54;;;;;;;9.35;4.70;;;26.30;55.30;;;;;;352460;28;1070;-57
2023/09/15 00:12:07;;;;;;;10.98;4.53;;;26.20;55.30;;;;;;352394;28;1013;-58
2023/09/15 00:12:18;;;;;;;10.85;4.38;;;26.20;55.40;;;;;;352462;28;2011;-58
2023/09/15 00:12:28;;;;;;;8.90;4.35;;;26.20;55.50;;;;;;352475;28;1157;-57
2023/09/15 00:12:42;;;;;;;9.57;4.50;;;26.30;55.50;;;;;;352448;28;1014;-57
2023/09/15 00:12:53;;;;;;;9.00;4.30;;;26.30;55.50;;;;;;352415;28;1031;-57
2023/09/15 00:13:03;;;;;;;9.15;4.28;;;26.30;55.50;;;;;;352498;28;943;-57
2023/09/15 00:13:15;;;;;;;11.17;4.33;;;26.30;55.50;;;;;;352461;28;1102;-57
2023/09/15 00:13:27;;;;;;;12.85;4.53;;;26.30;55.50;;;;;;352422;28;1018;-56
2023/09/15 00:13:37;;;;;;;12.63;4.68;;;26.20;55.50;;;;;;352475;28;966;-58
2023/09/15 00:13:48;;;;;;;11.27;4.63;;;26.30;55.50;;;;;;352528;28;1064;-57
2023/09/15 00:13:59;;;;;;;10.63;4.55;;;26.30;55.50;;;;;;352498;28;1026;-58
2023/09/15 00:14:12;;;;;;;9.93;4.63;;;26.30;55.50;;;;;;352510;28;1022;-57
2023/09/15 00:14:23;;;;;;;11.82;4.82;;;26.30;55.50;;;;;;352403;28;1073;-56
2023/09/15 00:14:38;;;;;;;11.98;5.00;;;26.30;55.50;;;;;;352539;28;939;-57
2023/09/15 00:14:49;;;;;;;10.52;4.60;;;26.20;55.50;;;;;;352494;28;1129;-57
2023/09/15 00:15:00;;;;;;;11.63;4.55;;;26.20;55.60;;;;;;352370;28;1158;-57
2023/09/15 00:15:12;;;;;;;10.48;4.35;;;26.30;55.60;;;;;;352522;28;837;-58
2023/09/15 00:15:22;;;;;;;8.50;4.28;;;26.30;55.50;;;;;;352507;28;916;-58
2023/09/15 00:15:34;;;;;;;7.57;4.27;;;26.20;55.30;;;;;;352450;28;1610;-57
2023/09/15 00:15:49;;;;;;;9.57;5.43;;;26.20;55.50;;;;;;352372;28;1853;-59
2023/09/15 00:16:00;;;;;;;10.45;6.50;;;26.20;55.60;;;;;;352476;28;984;-57
2023/09/15 00:16:11;;;;;;;11.53;6.50;;;26.20;55.50;;;;;;352481;27;1018;-57
2023/09/15 00:16:23;;;;;;;13.05;7.65;;;26.20;55.50;;;;;;352453;28;1197;-57
2023/09/15 00:16:34;;;;;;;13.60;7.48;;;26.20;55.50;;;;;;352418;28;979;-57
2023/09/15 00:16:45;;;;;;;11.17;6.20;;;26.20;55.60;;;;;;352438;27;1154;-57
2023/09/15 00:16:56;;;;;;;9.05;4.65;;;26.20;55.60;;;;;;352453;28;1134;-59
2023/09/15 00:17:07;;;;;;;8.73;4.53;;;26.20;55.70;;;;;;352483;28;1886;-57
2023/09/15 00:17:17;;;;;;;9.45;4.93;;;26.20;55.70;;;;;;352396;28;1190;-58
2023/09/15 00:17:28;;;;;;;10.45;5.53;;;26.20;55.60;;;;;;352433;28;1099;-57
2023/09/15 00:17:43;;;;;;;11.63;7.43;;;26.20;55.70;;;;;;352478;28;1783;-57
2023/09/15 00:17:55;;;;;;;13.98;9.85;;;26.20;55.70;;;;;;352438;28;1098;-56
2023/09/15 00:18:05;;;;;;;14.38;9.57;;;26.20;55.70;;;;;;352382;28;1081;-57
2023/09/15 00:18:18;;;;;;;12.73;8.18;;;26.20;55.70;;;;;;352527;28;1011;-57
2023/09/15 00:18:29;;;;;;;10.27;6.30;;;26.20;55.70;;;;;;352470;28;844;-59
2023/09/15 00:18:41;;;;;;;9.63;5.22;;;26.20;55.70;;;;;;352447;28;1355;-55
2023/09/15 00:18:52;;;;;;;10.57;4.85;;;26.20;55.70;;;;;;352363;28;998;-57
2023/09/15 00:19:03;;;;;;;9.67;4.90;;;26.20;55.70;;;;;;352485;28;1777;-57
2023/09/15 00:19:15;;;;;;;10.02;4.70;;;26.20;55.70;;;;;;352511;28;840;-57
2023/09/15 00:19:27;;;;;;;9.15;4.30;;;26.30;55.70;;;;;;352500;28;1093;-57
2023/09/15 00:19:40;;;;;;;10.15;4.75;;;26.20;55.70;;;;;;352379;28;1106;-57
2023/09/15 00:19:51;;;;;;;9.25;4.90;;;26.20;55.70;;;;;;352489;28;885;-57
2023/09/15 00:20:20;;;;;;;9.13;4.90;;;26.20;55.70;;;;;;352505;28;880;-57
2023/09/15 00:20:30;;;;;;;9.52;5.22;;;26.20;55.50;;;;;;352366;28;1022;-57
2023/09/15 00:20:41;;;;;;;10.07;5.10;;;26.20;55.70;;;;;;352458;28;1816;-58
2023/09/15 00:20:52;;;;;;;10.98;5.20;;;26.30;55.70;;;;;;352495;28;1046;-57
2023/09/15 00:21:05;;;;;;;10.32;5.25;;;26.20;55.70;;;;;;352430;28;1194;-58
2023/09/15 00:21:16;;;;;;;9.13;4.68;;;26.20;55.70;;;;;;352359;28;1134;-57
2023/09/15 00:21:26;;;;;;;14.40;5.00;;;26.20;55.80;;;;;;352505;28;840;-57
2023/09/15 00:21:38;;;;;;;15.63;5.20;;;26.20;55.80;;;;;;352496;28;912;-57
2023/09/15 00:21:49;;;;;;;15.98;5.00;;;26.20;55.80;;;;;;352363;28;1131;-57
2023/09/15 00:21:59;;;;;;;10.93;4.20;;;26.20;55.80;;;;;;352530;28;1119;-57
2023/09/15 00:22:10;;;;;;;10.27;4.13;;;26.20;55.80;;;;;;352360;28;1897;-58
2023/09/15 00:22:21;;;;;;;10.82;4.22;;;26.20;55.90;;;;;;352499;28;990;-58
2023/09/15 00:22:33;;;;;;;10.88;4.15;;;26.20;55.90;;;;;;352364;28;975;-57
2023/09/15 00:22:49;;;;;;;10.82;4.18;;;26.20;55.90;;;;;;352441;28;1142;-57
2023/09/15 00:22:59;;;;;;;9.90;4.13;;;26.20;55.90;;;;;;352485;28;1087;-56
2023/09/15 00:23:10;;;;;;;9.73;4.20;;;26.20;56.00;;;;;;352411;28;1011;-58
2023/09/15 00:23:21;;;;;;;8.80;4.13;;;26.20;56.00;;;;;;352407;28;1379;-57
2023/09/15 00:23:32;;;;;;;9.38;4.22;;;26.20;55.90;;;;;;352392;28;1110;-57
2023/09/15 00:23:43;;;;;;;10.65;4.43;;;26.20;55.90;;;;;;352501;28;912;-56
2023/09/15 00:23:53;;;;;;;11.77;4.50;;;26.20;55.90;;;;;;352387;28;1003;-57
2023/09/15 00:24:05;;;;;;;11.23;4.57;;;26.20;56.00;;;;;;352400;28;1445;-57
2023/09/15 00:24:16;;;;;;;10.20;4.15;;;26.20;56.00;;;;;;352494;28;856;-57
2023/09/15 00:24:28;;;;;;;10.90;4.30;;;26.20;56.00;;;;;;352457;28;967;-58
2023/09/15 00:24:40;;;;;;;10.93;4.10;;;26.20;56.00;;;;;;352407;28;915;-57
2023/09/15 00:24:51;;;;;;;11.00;4.07;;;26.20;56.10;;;;;;352495;28;983;-58
2023/09/15 00:25:02;;;;;;;8.95;3.72;;;26.20;56.00;;;;;;352462;28;999;-57
2023/09/15 00:25:13;;;;;;;7.80;3.83;;;26.20;56.00;;;;;;352515;28;797;-57
2023/09/15 00:25:28;;;;;;;8.05;4.15;;;26.20;56.00;;;;;;352363;28;1901;-57
2023/09/15 00:25:39;;;;;;;9.70;4.20;;;26.20;56.00;;;;;;352451;28;999;-57
2023/09/15 00:25:54;;;;;;;9.23;3.90;;;26.20;56.00;;;;;;352439;28;1456;-57
2023/09/15 00:26:05;;;;;;;9.93;4.15;;;26.20;55.90;;;;;;352365;28;990;-58
2023/09/15 00:26:15;;;;;;;9.88;4.15;;;26.10;55.90;;;;;;352446;28;1146;-58
2023/09/15 00:26:28;;;;;;;8.82;4.10;;;26.20;55.90;;;;;;352481;28;840;-57
2023/09/15 00:26:39;;;;;;;8.23;3.92;;;26.20;56.00;;;;;;352490;28;1107;-57
2023/09/15 00:26:52;;;;;;;8.40;4.10;;;26.20;56.00;;;;;;352459;28;914;-57
2023/09/15 00:27:03;;;;;;;8.00;4.35;;;26.20;56.00;;;;;;352414;28;1050;-56
2023/09/15 00:27:13;;;;;;;9.40;4.40;;;26.20;55.90;;;;;;352443;28;1087;-57
2023/09/15 00:27:24;;;;;;;10.68;4.40;;;26.20;55.90;;;;;;352494;28;1006;-57
2023/09/15 00:27:35;;;;;;;10.33;4.20;;;26.20;55.80;;;;;;352416;28;991;-57
2023/09/15 00:27:53;;;;;;;8.75;3.92;;;26.20;55.80;;;;;;352465;28;1003;-57
2023/09/15 00:28:04;;;;;;;9.32;3.70;;;26.20;56.00;;;;;;352392;28;1121;-57
2023/09/15 00:28:15;;;;;;;9.43;3.83;;;26.20;56.00;;;;;;352398;28;1027;-57
2023/09/15 00:28:26;;;;;;;7.17;3.63;;;26.10;56.10;;;;;;352462;28;983;-57
2023/09/15 00:28:36;;;;;;;7.55;3.63;;;26.10;56.10;;;;;;352447;28;1102;-56
2023/09/15 00:28:47;;;;;;;8.10;3.85;;;26.10;56.10;;;;;;352529;28;829;-57
2023/09/15 00:28:59;;;;;;;9.57;4.43;;;26.10;56.20;;;;;;352353;28;1514;-57
2023/09/15 00:29:11;;;;;;;8.75;4.30;;;26.10;56.20;;;;;;352386;28;1198;-56
2023/09/15 00:29:22;;;;;;;8.57;4.55;;;26.10;56.30;;;;;;352497;28;862;-56
2023/09/15 00:29:33;;;;;;;10.00;4.60;;;26.10;56.30;;;;;;352459;28;1149;-57
2023/09/15 00:29:43;;;;;;;9.67;4.33;;;26.10;56.40;;;;;;352438;28;999;-57
2023/09/15 00:29:54;;;;;;;9.48;4.38;;;26.10;56.40;;;;;;352438;28;1178;-57
2023/09/15 00:30:05;;;;;;;8.95;4.18;;;26.10;56.40;;;;;;352468;28;820;-56
2023/09/15 00:30:18;;;;;;;8.90;4.20;;;26.10;56.30;;;;;;352497;28;1094;-56
2023/09/15 00:30:29;;;;;;;8.82;4.45;;;26.10;56.40;;;;;;352366;28;1015;-57
2023/09/15 00:30:40;;;;;;;7.85;4.70;;;26.10;56.40;;;;;;352427;28;1489;-57
2023/09/15 00:30:52;;;;;;;8.35;4.72;;;26.10;56.40;;;;;;352440;28;998;-57
2023/09/15 00:31:02;;;;;;;10.07;4.72;;;26.10;56.50;;;;;;352348;28;1373;-57
2023/09/15 00:31:13;;;;;;;10.15;4.70;;;26.10;56.50;;;;;;352504;28;856;-57
2023/09/15 00:31:25;;;;;;;9.82;4.88;;;26.10;56.50;;;;;;352532;28;872;-57
2023/09/15 00:31:36;;;;;;;8.55;4.53;;;26.10;56.50;;;;;;352410;28;898;-56
2023/09/15 00:31:46;;;;;;;8.55;4.43;;;26.10;56.50;;;;;;352479;28;884;-57
2023/09/15 00:31:57;;;;;;;8.50;4.20;;;26.10;56.50;;;;;;352459;28;1523;-57
2023/09/15 00:32:08;;;;;;;8.75;4.32;;;26.10;56.50;;;;;;352382;28;1027;-57
2023/09/15 00:32:18;;;;;;;9.90;4.40;;;26.10;56.50;;;;;;352529;28;916;-57
2023/09/15 00:32:29;;;;;;;9.00;4.37;;;26.10;56.50;;;;;;352498;28;930;-58
2023/09/15 00:32:40;;;;;;;9.52;4.32;;;26.10;56.50;;;;;;352389;28;1034;-57
2023/09/15 00:32:51;;;;;;;8.90;4.30;;;26.10;56.50;;;;;;352507;28;820;-56
2023/09/15 00:33:02;;;;;;;9.50;4.20;;;26.10;56.50;;;;;;352437;28;1246;-57
2023/09/15 00:33:13;;;;;;;9.35;4.15;;;26.10;56.50;;;;;;352377;28;1130;-58
2023/09/15 00:33:24;;;;;;;8.75;4.22;;;26.10;56.50;;;;;;352517;28;856;-57
2023/09/15 00:33:35;;;;;;;8.90;4.50;;;26.10;56.50;;;;;;352514;28;867;-57
2023/09/15 00:33:45;;;;;;;8.57;4.53;;;26.10;56.50;;;;;;352369;28;1010;-57
2023/09/15 00:33:56;;;;;;;9.57;4.70;;;26.10;56.50;;;;;;352259;28;1299;-57
2023/09/15 00:34:07;;;;;;;10.50;4.60;;;26.10;56.50;;;;;;352477;28;821;-57
2023/09/15 00:34:18;;;;;;;9.55;4.50;;;26.10;56.50;;;;;;352361;28;1107;-57
2023/09/15 00:34:28;;;;;;;10.70;4.10;;;26.10;56.40;;;;;;352446;28;1014;-57
2023/09/15 00:34:39;;;;;;;11.00;4.30;;;26.10;56.50;;;;;;352504;28;840;-57
2023/09/15 00:34:50;;;;;;;13.30;4.40;;;26.10;56.50;;;;;;352395;28;975;-56
2023/09/15 00:35:00;;;;;;;12.38;4.60;;;26.10;56.50;;;;;;352435;28;983;-57
2023/09/15 00:35:12;;;;;;;12.68;4.45;;;26.10;56.50;;;;;;352492;28;979;-58
2023/09/15 00:35:26;;;;;;;11.00;4.45;;;26.10;56.50;;;;;;352486;28;1075;-56
2023/09/15 00:35:37;;;;;;;9.02;4.53;;;26.10;56.50;;;;;;352420;28;999;-58
2023/09/15 00:35:48;;;;;;;8.23;4.60;;;26.10;56.50;;;;;;352500;28;971;-56
2023/09/15 00:36:01;;;;;;;9.20;4.40;;;26.10;56.50;;;;;;352353;28;893;-58
2023/09/15 00:36:11;;;;;;;8.65;3.95;;;26.10;56.50;;;;;;352472;28;1093;-58
2023/09/15 00:36:22;;;;;;;8.88;3.80;;;26.10;56.50;;;;;;352378;28;1597;-57
2023/09/15 00:36:33;;;;;;;7.97;4.03;;;26.10;56.50;;;;;;352403;28;1079;-57
2023/09/15 00:36:45;;;;;;;9.65;4.47;;;26.10;56.50;;;;;;352483;28;1006;-57
2023/09/15 00:36:56;;;;;;;10.90;4.60;;;26.10;56.50;;;;;;352426;28;1130;-57
2023/09/15 00:37:06;;;;;;;10.60;4.38;;;26.10;56.50;;;;;;352415;28;1138;-58
2023/09/15 00:37:17;;;;;;;10.40;4.43;;;26.10;56.50;;;;;;352457;28;1099;-57
2023/09/15 00:37:28;;;;;;;9.82;4.38;;;26.10;56.40;;;;;;352423;28;1134;-57
2023/09/15 00:37:39;;;;;;;9.03;4.33;;;26.10;56.50;;;;;;352484;28;971;-57
2023/09/15 00:37:51;;;;;;;7.80;4.28;;;26.10;56.50;;;;;;352289;28;1559;-57
2023/09/15 00:38:03;;;;;;;9.70;4.10;;;26.10;56.50;;;;;;352419;28;1209;-57
2023/09/15 00:38:13;;;;;;;9.70;3.90;;;26.10;56.50;;;;;;352472;28;1113;-57
2023/09/15 00:38:25;;;;;;;10.23;3.90;;;26.10;56.50;;;;;;352462;28;1014;-56
2023/09/15 00:38:37;;;;;;;7.28;3.80;;;26.10;56.50;;;;;;352414;28;902;-56
2023/09/15 00:38:47;;;;;;;7.65;3.75;;;26.10;56.50;;;;;;352473;28;1109;-58
2023/09/15 00:38:58;;;;;;;8.77;4.22;;;26.10;56.50;;;;;;352479;28;1813;-56
2023/09/15 00:39:09;;;;;;;11.65;4.80;;;26.10;56.50;;;;;;352416;28;1081;-56
2023/09/15 00:39:20;;;;;;;11.88;4.68;;;26.10;56.40;;;;;;352401;28;1039;-57
2023/09/15 00:39:31;;;;;;;10.88;4.32;;;26.10;56.40;;;;;;352468;28;825;-57
2023/09/15 00:39:42;;;;;;;10.65;3.95;;;26.10;56.40;;;;;;352486;28;918;-56
2023/09/15 00:39:53;;;;;;;10.07;4.13;;;26.10;56.50;;;;;;352523;28;974;-58
2023/09/15 00:40:06;;;;;;;9.63;4.55;;;26.10;56.50;;;;;;352360;28;1069;-56
2023/09/15 00:40:19;;;;;;;9.25;4.50;;;26.10;56.50;;;;;;352458;28;1106;-57
2023/09/15 00:40:30;;;;;;;9.40;4.10;;;26.10;56.60;;;;;;352447;28;1058;-57
2023/09/15 00:40:41;;;;;;;10.57;4.20;;;26.10;56.50;;;;;;352513;28;880;-57
2023/09/15 00:40:52;;;;;;;8.63;4.18;;;26.10;56.60;;;;;;352383;28;1010;-57
2023/09/15 00:41:02;;;;;;;8.48;4.20;;;26.10;56.60;;;;;;352410;28;1747;-57
2023/09/15 00:41:13;;;;;;;8.87;4.20;;;26.10;56.60;;;;;;352441;27;1095;-56
2023/09/15 00:41:24;;;;;;;9.93;4.38;;;26.10;56.60;;;;;;352519;28;871;-57
2023/09/15 00:41:35;;;;;;;9.98;4.30;;;26.10;56.70;;;;;;352415;28;1046;-57
2023/09/15 00:41:46;;;;;;;10.57;4.35;;;26.10;56.70;;;;;;352502;28;995;-57
2023/09/15 00:41:56;;;;;;;10.65;4.30;;;26.10;56.70;;;;;;352453;28;874;-58
2023/09/15 00:42:07;;;;;;;11.43;4.30;;;26.10;56.70;;;;;;352469;28;958;-58
2023/09/15 00:42:19;;;;;;;8.63;3.88;;;26.10;56.60;;;;;;352297;28;1961;-57
2023/09/15 00:42:30;;;;;;;7.80;3.95;;;26.10;56.70;;;;;;352500;28;990;-57
2023/09/15 00:42:45;;;;;;;6.93;4.05;;;26.10;56.70;;;;;;352429;28;1160;-58
2023/09/15 00:42:55;;;;;;;7.97;4.43;;;26.10;56.70;;;;;;352380;28;1208;-56
2023/09/15 00:43:06;;;;;;;8.23;4.57;;;26.10;56.70;;;;;;352354;28;939;-55
2023/09/15 00:43:17;;;;;;;7.68;4.25;;;26.10;56.70;;;;;;352440;28;1094;-55
2023/09/15 00:43:27;;;;;;;7.80;4.15;;;26.10;56.70;;;;;;352471;28;979;-57
2023/09/15 00:43:38;;;;;;;9.17;4.10;;;26.10;56.70;;;;;;352330;28;975;-57
2023/09/15 00:43:49;;;;;;;10.02;4.10;;;26.10;56.60;;;;;;352200;28;1550;-57
2023/09/15 00:43:59;;;;;;;10.68;4.28;;;26.10;56.60;;;;;;352338;28;1054;-57
2023/09/15 00:44:11;;;;;;;10.32;4.18;;;26.10;56.70;;;;;;352293;28;1014;-57
2023/09/15 00:44:22;;;;;;;8.95;4.10;;;26.10;56.70;;;;;;352384;28;968;-57
2023/09/15 00:44:32;;;;;;;8.77;4.03;;;26.10;56.70;;;;;;352226;28;1953;-56
2023/09/15 00:44:43;;;;;;;8.65;4.15;;;26.10;56.70;;;;;;352349;28;1069;-57
2023/09/15 00:44:54;;;;;;;9.13;4.40;;;26.10;56.70;;;;;;352267;28;1165;-57
2023/09/15 00:45:05;;;;;;;8.45;4.15;;;26.10;56.70;;;;;;352279;28;1463;-57
2023/09/15 00:45:22;;;;;;;8.52;3.72;;;26.10;56.70;;;;;;352250;28;1042;-57
2023/09/15 00:45:33;;;;;;;9.23;3.90;;;26.10;56.80;;;;;;352345;28;1011;-57
2023/09/15 00:45:44;;;;;;;9.30;4.22;;;26.10;56.80;;;;;;352460;28;1057;-57
2023/09/15 00:45:55;;;;;;;8.63;4.20;;;26.10;56.80;;;;;;352296;28;1208;-56
2023/09/15 00:46:08;;;;;;;7.65;4.03;;;26.10;56.80;;;;;;352439;28;914;-56
2023/09/15 00:46:19;;;;;;;8.23;4.05;;;26.10;56.80;;;;;;352422;28;1002;-58
2023/09/15 00:46:32;;;;;;;8.70;4.10;;;26.10;56.80;;;;;;352272;28;1102;-57
2023/09/15 00:46:43;;;;;;;8.93;4.30;;;26.10;56.90;;;;;;352352;28;1474;-56
2023/09/15 00:46:54;;;;;;;7.78;3.92;;;26.10;56.90;;;;;;352423;28;1421;-57
2023/09/15 00:47:05;;;;;;;7.97;3.93;;;26.10;56.90;;;;;;352326;28;1013;-57
2023/09/15 00:47:16;;;;;;;8.32;4.00;;;26.00;56.90;;;;;;352456;28;1451;-56
2023/09/15 00:47:26;;;;;;;10.70;4.13;;;26.00;56.90;;;;;;352504;28;788;-57
2023/09/15 00:47:38;;;;;;;9.55;4.15;;;26.00;57.00;;;;;;352380;27;1797;-57
2023/09/15 00:47:56;;;;;;;7.88;3.97;;;26.00;56.90;;;;;;352465;28;1031;-57
2023/09/15 00:48:08;;;;;;;6.90;3.63;;;26.00;56.80;;;;;;352355;28;1090;-57
2023/09/15 00:48:19;;;;;;;8.48;4.05;;;26.00;56.70;;;;;;352444;28;1132;-57
2023/09/15 00:48:29;;;;;;;9.53;4.73;;;26.10;56.80;;;;;;352472;28;2045;-58
2023/09/15 00:48:41;;;;;;;8.35;4.90;;;26.10;56.80;;;;;;352323;28;1122;-57
2023/09/15 00:48:51;;;;;;;7.22;4.82;;;26.00;56.70;;;;;;352409;28;1432;-57
2023/09/15 00:49:03;;;;;;;8.90;5.00;;;26.00;56.80;;;;;;352423;28;1093;-57
2023/09/15 00:49:14;;;;;;;10.38;5.18;;;26.10;56.90;;;;;;352364;28;959;-58
2023/09/15 00:49:25;;;;;;;10.40;4.82;;;26.00;56.90;;;;;;352376;28;1457;-57
2023/09/15 00:49:36;;;;;;;10.43;4.83;;;26.00;56.90;;;;;;352475;28;1038;-57
2023/09/15 00:49:47;;;;;;;10.20;5.00;;;26.00;56.90;;;;;;352295;28;1279;-57
2023/09/15 00:49:59;;;;;;;11.50;5.43;;;26.00;56.80;;;;;;352465;28;898;-57
2023/09/15 00:50:25;;;;;;;10.43;5.40;;;26.10;56.90;;;;;;352451;28;899;-57
2023/09/15 00:50:36;;;;;;;9.98;5.07;;;26.10;56.90;;;;;;352289;28;1761;-58
2023/09/15 00:50:47;;;;;;;10.80;5.53;;;26.10;57.00;;;;;;352440;27;852;-58
2023/09/15 00:50:59;;;;;;;10.45;5.70;;;26.10;57.00;;;;;;352452;28;1094;-57
2023/09/15 00:51:09;;;;;;;10.63;5.25;;;26.00;57.00;;;;;;352388;28;903;-56
2023/09/15 00:51:21;;;;;;;11.20;5.17;;;26.00;57.00;;;;;;352456;28;1011;-57
2023/09/15 00:51:32;;;;;;;10.15;4.50;;;26.00;57.00;;;;;;352480;28;861;-58
2023/09/15 00:51:43;;;;;;;7.75;4.28;;;26.00;57.00;;;;;;352429;28;1217;-57
2023/09/15 00:51:54;;;;;;;8.35;4.20;;;26.10;57.00;;;;;;352355;28;1025;-56
2023/09/15 00:52:05;;;;;;;10.43;4.55;;;26.10;56.80;;;;;;352446;28;1042;-57
2023/09/15 00:52:16;;;;;;;11.30;4.68;;;26.10;56.80;;;;;;352437;28;1883;-57
2023/09/15 00:52:27;;;;;;;9.15;4.53;;;26.10;56.90;;;;;;352464;28;1005;-56
2023/09/15 00:52:38;;;;;;;7.80;4.20;;;26.10;56.90;;;;;;352350;28;1015;-57
2023/09/15 00:52:55;;;;;;;6.47;4.07;;;26.00;56.90;;;;;;352433;28;832;-57
2023/09/15 00:53:10;;;;;;;8.05;4.45;;;26.10;56.90;;;;;;352485;28;918;-57
2023/09/15 00:53:22;;;;;;;9.95;4.65;;;26.10;56.90;;;;;;352454;28;856;-57
2023/09/15 00:53:35;;;;;;;9.80;4.90;;;26.10;56.80;;;;;;352497;28;987;-58
2023/09/15 00:53:45;;;;;;;10.88;5.10;;;26.10;56.80;;;;;;352458;28;967;-57
2023/09/15 00:53:56;;;;;;;10.93;4.85;;;26.10;56.90;;;;;;352376;28;1046;-59
2023/09/15 00:54:07;;;;;;;10.48;4.68;;;26.10;56.90;;;;;;352433;28;1062;-58
2023/09/15 00:54:20;;;;;;;8.73;4.43;;;26.10;56.90;;;;;;352475;28;852;-58
2023/09/15 00:54:32;;;;;;;8.75;4.03;;;26.10;56.90;;;;;;352370;28;2593;-57
2023/09/15 00:54:43;;;;;;;9.27;4.03;;;26.10;56.90;;;;;;352403;28;1099;-56
2023/09/15 00:54:54;;;;;;;9.63;4.20;;;26.10;56.90;;;;;;352407;28;1042;-57
2023/09/15 00:55:08;;;;;;;10.07;4.40;;;26.10;56.90;;;;;;352371;28;1018;-56
2023/09/15 00:55:21;;;;;;;9.70;4.22;;;26.10;56.80;;;;;;352359;28;1159;-57
2023/09/15 00:55:34;;;;;;;8.40;4.15;;;26.10;56.80;;;;;;352464;28;879;-57
2023/09/15 00:55:44;;;;;;;8.15;4.10;;;26.10;56.90;;;;;;352451;28;1077;-57
2023/09/15 00:55:56;;;;;;;9.63;4.25;;;26.10;56.90;;;;;;352352;28;1810;-56
2023/09/15 00:56:08;;;;;;;10.77;4.28;;;26.10;56.90;;;;;;352369;28;1626;-56
2023/09/15 00:56:19;;;;;;;11.27;4.35;;;26.10;56.90;;;;;;352451;28;955;-57
2023/09/15 00:56:30;;;;;;;10.07;4.03;;;26.10;56.90;;;;;;352389;28;1030;-58
2023/09/15 00:56:41;;;;;;;9.68;3.83;;;26.10;56.90;;;;;;352467;28;963;-58
2023/09/15 00:56:51;;;;;;;8.85;3.75;;;26.10;56.90;;;;;;352458;28;1225;-58
2023/09/15 00:57:03;;;;;;;10.07;3.80;;;26.10;56.90;;;;;;352425;28;955;-57
2023/09/15 00:57:13;;;;;;;9.25;3.67;;;26.10;56.90;;;;;;352377;28;1065;-57
2023/09/15 00:57:25;;;;;;;8.65;3.50;;;26.10;56.90;;;;;;352433;28;999;-57
2023/09/15 00:57:37;;;;;;;9.13;3.78;;;26.10;56.80;;;;;;352403;28;1302;-58
2023/09/15 00:57:50;;;;;;;10.80;4.18;;;26.10;56.70;;;;;;352408;28;1015;-57
2023/09/15 00:58:03;;;;;;;10.20;4.30;;;26.10;56.90;;;;;;352445;28;1053;-57
2023/09/15 00:58:16;;;;;;;10.07;4.22;;;26.10;56.90;;;;;;352496;28;848;-58
2023/09/15 00:58:27;;;;;;;10.20;4.47;;;26.10;57.00;;;;;;352368;28;1031;-57
2023/09/15 00:58:40;;;;;;;8.18;4.40;;;26.10;57.00;;;;;;352433;28;1269;-57
2023/09/15 00:58:51;;;;;;;7.05;4.15;;;26.00;57.10;;;;;;352438;28;1027;-57
2023/09/15 00:59:01;;;;;;;7.03;3.90;;;26.10;57.10;;;;;;352368;28;1038;-57
2023/09/15 00:59:13;;;;;;;7.43;3.88;;;26.10;57.10;;;;;;352447;28;1078;-57
2023/09/15 00:59:24;;;;;;;9.48;3.85;;;26.10;57.10;;;;;;352495;28;860;-58
2023/09/15 00:59:36;;;;;;;10.85;4.00;;;26.10;57.10;;;;;;352438;28;1010;-57
2023/09/15 00:59:47;;;;;;;11.45;4.10;;;26.00;57.10;;;;;;352358;28;894;-56
2023/09/15 00:59:58;;;;;;;9.52;3.95;;;26.10;57.10;;;;;;352438;28;864;-56
2023/09/15 01:00:14;;;;;;;9.77;4.10;;;26.10;57.10;;;;;;352508;28;845;-58
2023/09/15 01:00:26;;;;;;;9.85;4.28;;;26.10;57.20;;;;;;352451;28;982;-58
2023/09/15 01:00:44;;;;;;;8.90;4.43;;;26.10;57.10;;;;;;352343;28;1074;-57
2023/09/15 01:00:55;;;;;;;8.43;4.40;;;26.10;57.10;;;;;;352415;28;1038;-56
2023/09/15 01:01:06;;;;;;;8.77;4.43;;;26.10;57.10;;;;;;352412;28;990;-58
2023/09/15 01:01:18;;;;;;;9.30;4.32;;;26.10;57.20;;;;;;352456;28;1213;-57
2023/09/15 01:01:29;;;;;;;9.93;4.20;;;26.00;57.20;;;;;;352426;28;974;-56
2023/09/15 01:01:42;;;;;;;9.77;4.00;;;26.10;57.20;;;;;;352488;28;927;-57
2023/09/15 01:01:53;;;;;;;9.50;4.10;;;26.00;57.20;;;;;;352439;28;979;-57
2023/09/15 01:02:04;;;;;;;8.05;3.92;;;26.10;57.10;;;;;;352436;28;979;-57
2023/09/15 01:02:15;;;;;;;8.80;4.22;;;26.10;57.10;;;;;;352287;28;1968;-58
2023/09/15 01:02:26;;;;;;;8.98;4.30;;;26.10;57.10;;;;;;352389;28;1070;-56